sensor_id;sensor_type;location;lat;lon;timestamp;P1;durP1;ratioP1;P2;durP2;ratioP2
5622;SDS011;2833;50.432;10.706;2023-08-01T00:01:40;4.80;;;3.67;;
5622;SDS011;2833;50.432;10.706;2023-08-01T00:04:05;6.23;;;3.40;;
5622;SDS011;2833;50.432;10.706;2023-08-01T00:06:30;5.23;;;3.97;;
5622;SDS011;2833;50.432;10.706;2023-08-01T00:08:56;7.13;;;3.87;;
5622;SDS011;2833;50.432;10.706;2023-08-01T00:11:21;7.03;;;3.80;;
5622;SDS011;2833;50.432;10.706;2023-08-01T00:13:46;4.43;;;3.57;;
5622;SDS011;2833;50.432;10.706;2023-08-01T00:16:11;4.50;;;3.40;;
5622;SDS011;2833;50.432;10.706;2023-08-01T00:18:36;7.53;;;4.17;;
5622;SDS011;2833;50.432;10.706;2023-08-01T00:21:02;5.37;;;3.50;;
5622;SDS011;2833;50.432;10.706;2023-08-01T00:23:27;5.30;;;3.70;;
5622;SDS011;2833;50.432;10.706;2023-08-01T00:25:53;7.77;;;3.70;;
5622;SDS011;2833;50.432;10.706;2023-08-01T00:28:18;3.80;;;3.13;;
5622;SDS011;2833;50.432;10.706;2023-08-01T00:30:43;5.50;;;3.67;;
5622;SDS011;2833;50.432;10.706;2023-08-01T00:33:09;3.30;;;3.00;;
5622;SDS011;2833;50.432;10.706;2023-08-01T00:35:34;5.97;;;3.17;;
5622;SDS011;2833;50.432;10.706;2023-08-01T00:37:59;5.60;;;3.27;;
5622;SDS011;2833;50.432;10.706;2023-08-01T00:40:29;6.73;;;3.40;;
5622;SDS011;2833;50.432;10.706;2023-08-01T00:42:54;3.90;;;3.17;;
5622;SDS011;2833;50.432;10.706;2023-08-01T00:45:21;5.03;;;3.23;;
5622;SDS011;2833;50.432;10.706;2023-08-01T00:47:49;4.77;;;3.57;;
5622;SDS011;2833;50.432;10.706;2023-08-01T00:50:14;5.93;;;3.70;;
5622;SDS011;2833;50.432;10.706;2023-08-01T00:52:39;3.60;;;2.90;;
5622;SDS011;2833;50.432;10.706;2023-08-01T00:55:05;4.80;;;3.27;;
5622;SDS011;2833;50.432;10.706;2023-08-01T00:57:30;4.60;;;3.40;;
5622;SDS011;2833;50.432;10.706;2023-08-01T00:59:56;4.50;;;3.33;;
5622;SDS011;2833;50.432;10.706;2023-08-01T01:02:21;4.67;;;3.50;;
5622;SDS011;2833;50.432;10.706;2023-08-01T01:04:46;3.90;;;3.20;;
5622;SDS011;2833;50.432;10.706;2023-08-01T01:07:13;5.23;;;3.90;;
5622;SDS011;2833;50.432;10.706;2023-08-01T01:09:38;3.37;;;3.07;;
5622;SDS011;2833;50.432;10.706;2023-08-01T01:12:03;5.03;;;3.27;;
5622;SDS011;2833;50.432;10.706;2023-08-01T01:14:29;5.30;;;3.43;;
5622;SDS011;2833;50.432;10.706;2023-08-01T01:16:55;6.47;;;3.40;;
5622;SDS011;2833;50.432;10.706;2023-08-01T01:19:20;6.27;;;3.43;;
5622;SDS011;2833;50.432;10.706;2023-08-01T01:21:45;3.77;;;2.80;;
5622;SDS011;2833;50.432;10.706;2023-08-01T01:24:11;3.53;;;2.80;;
5622;SDS011;2833;50.432;10.706;2023-08-01T01:26:39;3.40;;;2.80;;
5622;SDS011;2833;50.432;10.706;2023-08-01T01:29:05;3.70;;;2.93;;
5622;SDS011;2833;50.432;10.706;2023-08-01T01:31:31;3.47;;;3.17;;
5622;SDS011;2833;50.432;10.706;2023-08-01T01:33:57;3.53;;;2.67;;
5622;SDS011;2833;50.432;10.706;2023-08-01T01:36:22;3.00;;;2.40;;
5622;SDS011;2833;50.432;10.706;2023-08-01T01:38:48;4.03;;;3.00;;
5622;SDS011;2833;50.432;10.706;2023-08-01T01:41:13;4.00;;;3.20;;
5622;SDS011;2833;50.432;10.706;2023-08-01T01:43:38;3.50;;;3.00;;
5622;SDS011;2833;50.432;10.706;2023-08-01T01:46:04;3.57;;;3.07;;
5622;SDS011;2833;50.432;10.706;2023-08-01T01:48:29;3.00;;;2.70;;
5622;SDS011;2833;50.432;10.706;2023-08-01T01:50:54;3.20;;;2.77;;
5622;SDS011;2833;50.432;10.706;2023-08-01T01:53:19;4.07;;;2.80;;
5622;SDS011;2833;50.432;10.706;2023-08-01T01:55:44;3.47;;;3.17;;
5622;SDS011;2833;50.432;10.706;2023-08-01T01:58:10;4.40;;;2.80;;
5622;SDS011;2833;50.432;10.706;2023-08-01T02:00:35;2.70;;;2.43;;
5622;SDS011;2833;50.432;10.706;2023-08-01T02:03:00;2.20;;;2.00;;
5622;SDS011;2833;50.432;10.706;2023-08-01T02:05:27;3.40;;;2.40;;
5622;SDS011;2833;50.432;10.706;2023-08-01T02:07:53;2.77;;;2.30;;
5622;SDS011;2833;50.432;10.706;2023-08-01T02:10:18;2.50;;;2.30;;
5622;SDS011;2833;50.432;10.706;2023-08-01T02:12:43;2.20;;;2.00;;
5622;SDS011;2833;50.432;10.706;2023-08-01T02:15:08;2.20;;;2.00;;
5622;SDS011;2833;50.432;10.706;2023-08-01T02:17:34;2.30;;;2.00;;
5622;SDS011;2833;50.432;10.706;2023-08-01T02:19:59;4.30;;;2.07;;
5622;SDS011;2833;50.432;10.706;2023-08-01T02:22:24;2.47;;;1.70;;
5622;SDS011;2833;50.432;10.706;2023-08-01T02:24:50;2.03;;;1.73;;
5622;SDS011;2833;50.432;10.706;2023-08-01T02:27:15;1.77;;;1.63;;
5622;SDS011;2833;50.432;10.706;2023-08-01T02:29:41;1.83;;;1.70;;
5622;SDS011;2833;50.432;10.706;2023-08-01T02:32:06;1.83;;;1.63;;
5622;SDS011;2833;50.432;10.706;2023-08-01T02:34:31;5.70;;;1.60;;
5622;SDS011;2833;50.432;10.706;2023-08-01T02:36:56;2.23;;;2.03;;
5622;SDS011;2833;50.432;10.706;2023-08-01T02:39:22;2.03;;;1.80;;
5622;SDS011;2833;50.432;10.706;2023-08-01T02:41:47;3.53;;;2.00;;
5622;SDS011;2833;50.432;10.706;2023-08-01T02:44:12;5.00;;;2.90;;
5622;SDS011;2833;50.432;10.706;2023-08-01T02:46:38;2.63;;;1.70;;
5622;SDS011;2833;50.432;10.706;2023-08-01T02:49:03;3.20;;;2.30;;
5622;SDS011;2833;50.432;10.706;2023-08-01T02:51:28;2.50;;;2.10;;
5622;SDS011;2833;50.432;10.706;2023-08-01T02:53:53;2.43;;;2.20;;
5622;SDS011;2833;50.432;10.706;2023-08-01T02:56:18;2.00;;;1.70;;
5622;SDS011;2833;50.432;10.706;2023-08-01T02:58:44;3.97;;;2.23;;
5622;SDS011;2833;50.432;10.706;2023-08-01T03:01:09;4.20;;;2.10;;
5622;SDS011;2833;50.432;10.706;2023-08-01T03:03:35;2.50;;;2.30;;
5622;SDS011;2833;50.432;10.706;2023-08-01T03:06:01;3.63;;;2.20;;
5622;SDS011;2833;50.432;10.706;2023-08-01T03:08:26;2.27;;;2.10;;
5622;SDS011;2833;50.432;10.706;2023-08-01T03:10:51;2.80;;;2.03;;
5622;SDS011;2833;50.432;10.706;2023-08-01T03:13:17;2.00;;;1.90;;
5622;SDS011;2833;50.432;10.706;2023-08-01T03:15:42;4.33;;;2.60;;
5622;SDS011;2833;50.432;10.706;2023-08-01T03:18:07;2.10;;;2.00;;
5622;SDS011;2833;50.432;10.706;2023-08-01T03:20:32;2.20;;;2.10;;
5622;SDS011;2833;50.432;10.706;2023-08-01T03:22:57;3.40;;;1.90;;
5622;SDS011;2833;50.432;10.706;2023-08-01T03:25:23;1.83;;;1.70;;
5622;SDS011;2833;50.432;10.706;2023-08-01T03:27:48;2.50;;;2.13;;
5622;SDS011;2833;50.432;10.706;2023-08-01T03:30:13;2.03;;;1.90;;
5622;SDS011;2833;50.432;10.706;2023-08-01T03:32:39;2.17;;;1.97;;
5622;SDS011;2833;50.432;10.706;2023-08-01T03:35:04;2.50;;;2.17;;
5622;SDS011;2833;50.432;10.706;2023-08-01T03:37:30;3.70;;;2.27;;
5622;SDS011;2833;50.432;10.706;2023-08-01T03:39:55;4.13;;;2.23;;
5622;SDS011;2833;50.432;10.706;2023-08-01T03:42:20;2.57;;;1.80;;
5622;SDS011;2833;50.432;10.706;2023-08-01T03:44:45;2.40;;;2.20;;
5622;SDS011;2833;50.432;10.706;2023-08-01T03:47:11;2.77;;;2.40;;
5622;SDS011;2833;50.432;10.706;2023-08-01T03:49:36;2.70;;;2.47;;
5622;SDS011;2833;50.432;10.706;2023-08-01T03:52:01;2.70;;;2.50;;
5622;SDS011;2833;50.432;10.706;2023-08-01T03:54:26;2.40;;;2.20;;
5622;SDS011;2833;50.432;10.706;2023-08-01T03:56:52;3.80;;;2.67;;
5622;SDS011;2833;50.432;10.706;2023-08-01T03:59:17;9.43;;;2.67;;
5622;SDS011;2833;50.432;10.706;2023-08-01T04:01:42;4.40;;;2.70;;
5622;SDS011;2833;50.432;10.706;2023-08-01T04:04:10;2.63;;;2.40;;
5622;SDS011;2833;50.432;10.706;2023-08-01T04:06:36;3.10;;;2.77;;
5622;SDS011;2833;50.432;10.706;2023-08-01T04:09:02;3.50;;;3.00;;
5622;SDS011;2833;50.432;10.706;2023-08-01T04:11:27;6.67;;;3.10;;
5622;SDS011;2833;50.432;10.706;2023-08-01T04:13:54;3.43;;;2.90;;
5622;SDS011;2833;50.432;10.706;2023-08-01T04:16:20;3.20;;;2.73;;
5622;SDS011;2833;50.432;10.706;2023-08-01T04:18:45;3.73;;;2.73;;
5622;SDS011;2833;50.432;10.706;2023-08-01T04:21:11;3.83;;;2.80;;
5622;SDS011;2833;50.432;10.706;2023-08-01T04:23:37;3.83;;;2.77;;
5622;SDS011;2833;50.432;10.706;2023-08-01T04:26:02;5.20;;;3.03;;
5622;SDS011;2833;50.432;10.706;2023-08-01T04:28:30;3.67;;;3.30;;
5622;SDS011;2833;50.432;10.706;2023-08-01T04:30:56;3.70;;;2.60;;
5622;SDS011;2833;50.432;10.706;2023-08-01T04:33:21;3.10;;;2.80;;
5622;SDS011;2833;50.432;10.706;2023-08-01T04:35:46;3.63;;;3.30;;
5622;SDS011;2833;50.432;10.706;2023-08-01T04:38:11;3.80;;;2.90;;
5622;SDS011;2833;50.432;10.706;2023-08-01T04:40:37;4.80;;;2.97;;
5622;SDS011;2833;50.432;10.706;2023-08-01T04:43:02;3.73;;;2.80;;
5622;SDS011;2833;50.432;10.706;2023-08-01T04:45:27;3.03;;;2.60;;
5622;SDS011;2833;50.432;10.706;2023-08-01T04:47:53;5.93;;;2.73;;
5622;SDS011;2833;50.432;10.706;2023-08-01T04:50:18;3.70;;;2.70;;
5622;SDS011;2833;50.432;10.706;2023-08-01T04:52:43;2.63;;;2.43;;
5622;SDS011;2833;50.432;10.706;2023-08-01T04:55:08;2.70;;;2.40;;
5622;SDS011;2833;50.432;10.706;2023-08-01T04:57:33;2.33;;;2.10;;
5622;SDS011;2833;50.432;10.706;2023-08-01T04:59:59;3.07;;;2.30;;
5622;SDS011;2833;50.432;10.706;2023-08-01T05:02:24;3.20;;;2.57;;
5622;SDS011;2833;50.432;10.706;2023-08-01T05:04:50;3.00;;;2.70;;
5622;SDS011;2833;50.432;10.706;2023-08-01T05:07:15;3.53;;;2.77;;
5622;SDS011;2833;50.432;10.706;2023-08-01T05:09:40;3.17;;;2.67;;
5622;SDS011;2833;50.432;10.706;2023-08-01T05:12:06;3.23;;;2.90;;
5622;SDS011;2833;50.432;10.706;2023-08-01T05:14:31;3.03;;;2.53;;
5622;SDS011;2833;50.432;10.706;2023-08-01T05:16:56;4.00;;;2.50;;
5622;SDS011;2833;50.432;10.706;2023-08-01T05:19:21;3.07;;;2.50;;
5622;SDS011;2833;50.432;10.706;2023-08-01T05:21:47;2.60;;;2.40;;
5622;SDS011;2833;50.432;10.706;2023-08-01T05:24:12;2.70;;;2.43;;
5622;SDS011;2833;50.432;10.706;2023-08-01T05:26:37;2.83;;;2.27;;
5622;SDS011;2833;50.432;10.706;2023-08-01T05:29:02;4.87;;;2.53;;
5622;SDS011;2833;50.432;10.706;2023-08-01T05:31:28;3.63;;;2.63;;
5622;SDS011;2833;50.432;10.706;2023-08-01T05:33:54;2.67;;;2.00;;
5622;SDS011;2833;50.432;10.706;2023-08-01T05:36:19;2.40;;;2.20;;
5622;SDS011;2833;50.432;10.706;2023-08-01T05:38:44;3.23;;;2.93;;
5622;SDS011;2833;50.432;10.706;2023-08-01T05:41:09;2.73;;;2.50;;
5622;SDS011;2833;50.432;10.706;2023-08-01T05:43:34;3.40;;;2.53;;
5622;SDS011;2833;50.432;10.706;2023-08-01T05:46:00;3.90;;;2.50;;
5622;SDS011;2833;50.432;10.706;2023-08-01T05:48:25;2.30;;;2.10;;
5622;SDS011;2833;50.432;10.706;2023-08-01T05:50:50;2.20;;;2.10;;
5622;SDS011;2833;50.432;10.706;2023-08-01T05:53:15;2.23;;;2.03;;
5622;SDS011;2833;50.432;10.706;2023-08-01T05:55:41;2.90;;;2.60;;
5622;SDS011;2833;50.432;10.706;2023-08-01T05:58:06;2.63;;;2.30;;
5622;SDS011;2833;50.432;10.706;2023-08-01T06:00:31;4.80;;;2.40;;
5622;SDS011;2833;50.432;10.706;2023-08-01T06:02:56;3.33;;;2.33;;
5622;SDS011;2833;50.432;10.706;2023-08-01T06:05:22;3.07;;;2.30;;
5622;SDS011;2833;50.432;10.706;2023-08-01T06:07:47;2.30;;;2.20;;
5622;SDS011;2833;50.432;10.706;2023-08-01T06:10:12;3.23;;;2.73;;
5622;SDS011;2833;50.432;10.706;2023-08-01T06:12:38;3.00;;;2.53;;
5622;SDS011;2833;50.432;10.706;2023-08-01T06:15:03;5.50;;;3.23;;
5622;SDS011;2833;50.432;10.706;2023-08-01T06:17:28;5.43;;;2.60;;
5622;SDS011;2833;50.432;10.706;2023-08-01T06:19:54;2.50;;;2.30;;
5622;SDS011;2833;50.432;10.706;2023-08-01T06:22:19;2.73;;;2.50;;
5622;SDS011;2833;50.432;10.706;2023-08-01T06:24:45;2.70;;;2.50;;
5622;SDS011;2833;50.432;10.706;2023-08-01T06:27:10;2.90;;;2.60;;
5622;SDS011;2833;50.432;10.706;2023-08-01T06:29:35;3.67;;;2.50;;
5622;SDS011;2833;50.432;10.706;2023-08-01T06:32:02;2.83;;;2.20;;
5622;SDS011;2833;50.432;10.706;2023-08-01T06:34:27;2.40;;;2.20;;
5622;SDS011;2833;50.432;10.706;2023-08-01T06:36:52;2.60;;;2.40;;
5622;SDS011;2833;50.432;10.706;2023-08-01T06:39:18;3.50;;;2.30;;
5622;SDS011;2833;50.432;10.706;2023-08-01T06:41:43;3.47;;;2.47;;
5622;SDS011;2833;50.432;10.706;2023-08-01T06:44:08;3.20;;;2.40;;
5622;SDS011;2833;50.432;10.706;2023-08-01T06:46:33;3.33;;;2.27;;
5622;SDS011;2833;50.432;10.706;2023-08-01T06:48:59;5.50;;;2.77;;
5622;SDS011;2833;50.432;10.706;2023-08-01T06:51:24;5.87;;;2.47;;
5622;SDS011;2833;50.432;10.706;2023-08-01T06:53:49;3.27;;;2.17;;
5622;SDS011;2833;50.432;10.706;2023-08-01T06:56:14;2.07;;;1.97;;
5622;SDS011;2833;50.432;10.706;2023-08-01T06:58:39;1.90;;;1.80;;
5622;SDS011;2833;50.432;10.706;2023-08-01T07:01:05;1.73;;;1.63;;
5622;SDS011;2833;50.432;10.706;2023-08-01T07:03:30;2.80;;;1.90;;
5622;SDS011;2833;50.432;10.706;2023-08-01T07:05:55;2.07;;;1.97;;
5622;SDS011;2833;50.432;10.706;2023-08-01T07:08:21;2.37;;;2.17;;
5622;SDS011;2833;50.432;10.706;2023-08-01T07:10:46;2.33;;;2.13;;
5622;SDS011;2833;50.432;10.706;2023-08-01T07:13:12;3.43;;;2.43;;
5622;SDS011;2833;50.432;10.706;2023-08-01T07:15:37;2.70;;;2.10;;
5622;SDS011;2833;50.432;10.706;2023-08-01T07:18:02;2.17;;;1.80;;
5622;SDS011;2833;50.432;10.706;2023-08-01T07:20:28;2.20;;;1.97;;
5622;SDS011;2833;50.432;10.706;2023-08-01T07:22:53;1.70;;;1.60;;
5622;SDS011;2833;50.432;10.706;2023-08-01T07:25:18;1.80;;;1.70;;
5622;SDS011;2833;50.432;10.706;2023-08-01T07:27:44;1.67;;;1.40;;
5622;SDS011;2833;50.432;10.706;2023-08-01T07:30:09;1.70;;;1.60;;
5622;SDS011;2833;50.432;10.706;2023-08-01T07:32:35;1.60;;;1.50;;
5622;SDS011;2833;50.432;10.706;2023-08-01T07:35:02;1.77;;;1.60;;
5622;SDS011;2833;50.432;10.706;2023-08-01T07:37:27;2.60;;;1.60;;
5622;SDS011;2833;50.432;10.706;2023-08-01T07:39:54;2.20;;;1.70;;
5622;SDS011;2833;50.432;10.706;2023-08-01T07:42:19;1.40;;;1.30;;
5622;SDS011;2833;50.432;10.706;2023-08-01T07:44:45;1.80;;;1.70;;
5622;SDS011;2833;50.432;10.706;2023-08-01T07:47:10;1.67;;;1.57;;
5622;SDS011;2833;50.432;10.706;2023-08-01T07:49:35;1.77;;;1.67;;
5622;SDS011;2833;50.432;10.706;2023-08-01T07:52:00;1.70;;;1.60;;
5622;SDS011;2833;50.432;10.706;2023-08-01T07:54:25;2.30;;;2.10;;
5622;SDS011;2833;50.432;10.706;2023-08-01T07:56:51;1.70;;;1.60;;
5622;SDS011;2833;50.432;10.706;2023-08-01T07:59:16;2.17;;;1.93;;
5622;SDS011;2833;50.432;10.706;2023-08-01T08:01:41;1.53;;;1.40;;
5622;SDS011;2833;50.432;10.706;2023-08-01T08:04:07;2.23;;;2.03;;
5622;SDS011;2833;50.432;10.706;2023-08-01T08:06:32;3.20;;;2.27;;
5622;SDS011;2833;50.432;10.706;2023-08-01T08:08:57;1.80;;;1.70;;
5622;SDS011;2833;50.432;10.706;2023-08-01T08:11:22;1.77;;;1.67;;
5622;SDS011;2833;50.432;10.706;2023-08-01T08:13:48;4.60;;;1.87;;
5622;SDS011;2833;50.432;10.706;2023-08-01T08:16:13;2.63;;;1.70;;
5622;SDS011;2833;50.432;10.706;2023-08-01T08:18:39;3.03;;;1.70;;
5622;SDS011;2833;50.432;10.706;2023-08-01T08:21:04;1.97;;;1.87;;
5622;SDS011;2833;50.432;10.706;2023-08-01T08:23:29;4.17;;;2.00;;
5622;SDS011;2833;50.432;10.706;2023-08-01T08:25:55;2.57;;;2.00;;
5622;SDS011;2833;50.432;10.706;2023-08-01T08:28:27;1.90;;;1.80;;
5622;SDS011;2833;50.432;10.706;2023-08-01T08:30:53;2.23;;;2.07;;
5622;SDS011;2833;50.432;10.706;2023-08-01T08:33:21;3.50;;;2.40;;
5622;SDS011;2833;50.432;10.706;2023-08-01T08:35:46;2.57;;;1.97;;
5622;SDS011;2833;50.432;10.706;2023-08-01T08:38:12;3.47;;;3.17;;
5622;SDS011;2833;50.432;10.706;2023-08-01T08:40:37;3.87;;;2.90;;
5622;SDS011;2833;50.432;10.706;2023-08-01T08:43:05;2.57;;;2.10;;
5622;SDS011;2833;50.432;10.706;2023-08-01T08:45:34;2.60;;;1.97;;
5622;SDS011;2833;50.432;10.706;2023-08-01T08:48:01;2.87;;;2.37;;
5622;SDS011;2833;50.432;10.706;2023-08-01T08:50:26;2.33;;;2.10;;
5622;SDS011;2833;50.432;10.706;2023-08-01T08:52:52;4.67;;;4.20;;
5622;SDS011;2833;50.432;10.706;2023-08-01T08:55:19;3.77;;;2.90;;
5622;SDS011;2833;50.432;10.706;2023-08-01T08:57:47;2.10;;;1.90;;
5622;SDS011;2833;50.432;10.706;2023-08-01T09:00:15;1.87;;;1.67;;
5622;SDS011;2833;50.432;10.706;2023-08-01T09:02:41;3.07;;;2.03;;
5622;SDS011;2833;50.432;10.706;2023-08-01T09:05:06;1.60;;;1.50;;
5622;SDS011;2833;50.432;10.706;2023-08-01T09:07:31;1.47;;;1.37;;
5622;SDS011;2833;50.432;10.706;2023-08-01T09:09:58;1.80;;;1.70;;
5622;SDS011;2833;50.432;10.706;2023-08-01T09:12:23;1.40;;;1.30;;
5622;SDS011;2833;50.432;10.706;2023-08-01T09:14:50;1.43;;;1.33;;
5622;SDS011;2833;50.432;10.706;2023-08-01T09:17:15;2.93;;;1.40;;
5622;SDS011;2833;50.432;10.706;2023-08-01T09:19:43;1.50;;;1.23;;
5622;SDS011;2833;50.432;10.706;2023-08-01T09:22:12;1.40;;;1.30;;
5622;SDS011;2833;50.432;10.706;2023-08-01T09:24:37;1.30;;;1.20;;
5622;SDS011;2833;50.432;10.706;2023-08-01T09:27:03;1.80;;;1.70;;
5622;SDS011;2833;50.432;10.706;2023-08-01T09:29:29;2.50;;;1.80;;
5622;SDS011;2833;50.432;10.706;2023-08-01T09:31:56;2.03;;;1.83;;
5622;SDS011;2833;50.432;10.706;2023-08-01T09:34:22;1.70;;;1.60;;
5622;SDS011;2833;50.432;10.706;2023-08-01T09:36:48;1.30;;;1.20;;
5622;SDS011;2833;50.432;10.706;2023-08-01T09:39:18;1.67;;;1.57;;
5622;SDS011;2833;50.432;10.706;2023-08-01T09:41:43;1.30;;;1.20;;
5622;SDS011;2833;50.432;10.706;2023-08-01T09:44:15;1.60;;;1.50;;
5622;SDS011;2833;50.432;10.706;2023-08-01T09:46:40;1.60;;;1.50;;
5622;SDS011;2833;50.432;10.706;2023-08-01T09:49:08;1.50;;;1.40;;
5622;SDS011;2833;50.432;10.706;2023-08-01T09:51:45;1.73;;;1.63;;
5622;SDS011;2833;50.432;10.706;2023-08-01T09:54:10;2.00;;;1.90;;
5622;SDS011;2833;50.432;10.706;2023-08-01T09:56:36;2.90;;;2.30;;
5622;SDS011;2833;50.432;10.706;2023-08-01T09:59:01;2.20;;;2.00;;
5622;SDS011;2833;50.432;10.706;2023-08-01T10:01:26;2.37;;;2.17;;
5622;SDS011;2833;50.432;10.706;2023-08-01T10:03:53;2.73;;;2.43;;
5622;SDS011;2833;50.432;10.706;2023-08-01T10:06:19;6.20;;;2.50;;
5622;SDS011;2833;50.432;10.706;2023-08-01T10:08:45;4.53;;;2.43;;
5622;SDS011;2833;50.432;10.706;2023-08-01T10:11:11;1.77;;;1.67;;
5622;SDS011;2833;50.432;10.706;2023-08-01T10:13:37;2.70;;;2.50;;
5622;SDS011;2833;50.432;10.706;2023-08-01T10:16:02;5.83;;;3.10;;
5622;SDS011;2833;50.432;10.706;2023-08-01T10:18:27;4.33;;;2.60;;
5622;SDS011;2833;50.432;10.706;2023-08-01T10:20:53;3.73;;;2.40;;
5622;SDS011;2833;50.432;10.706;2023-08-01T10:23:18;3.20;;;2.60;;
5622;SDS011;2833;50.432;10.706;2023-08-01T10:25:44;6.50;;;2.50;;
5622;SDS011;2833;50.432;10.706;2023-08-01T10:28:09;2.80;;;2.60;;
5622;SDS011;2833;50.432;10.706;2023-08-01T10:30:34;2.83;;;2.60;;
5622;SDS011;2833;50.432;10.706;2023-08-01T10:33:00;2.83;;;2.50;;
5622;SDS011;2833;50.432;10.706;2023-08-01T10:35:38;3.03;;;2.53;;
5622;SDS011;2833;50.432;10.706;2023-08-01T10:38:06;2.90;;;2.70;;
5622;SDS011;2833;50.432;10.706;2023-08-01T10:40:35;4.40;;;2.83;;
5622;SDS011;2833;50.432;10.706;2023-08-01T10:43:01;3.03;;;2.73;;
5622;SDS011;2833;50.432;10.706;2023-08-01T10:45:26;3.10;;;2.80;;
5622;SDS011;2833;50.432;10.706;2023-08-01T10:47:53;3.57;;;3.20;;
5622;SDS011;2833;50.432;10.706;2023-08-01T10:50:18;3.67;;;3.07;;
5622;SDS011;2833;50.432;10.706;2023-08-01T10:52:44;2.83;;;2.53;;
5622;SDS011;2833;50.432;10.706;2023-08-01T10:55:09;4.03;;;3.20;;
5622;SDS011;2833;50.432;10.706;2023-08-01T10:57:36;3.00;;;2.70;;
5622;SDS011;2833;50.432;10.706;2023-08-01T11:00:02;3.03;;;2.67;;
5622;SDS011;2833;50.432;10.706;2023-08-01T11:02:30;3.37;;;3.07;;
5622;SDS011;2833;50.432;10.706;2023-08-01T11:04:59;4.03;;;2.27;;
5622;SDS011;2833;50.432;10.706;2023-08-01T11:07:24;3.60;;;2.80;;
5622;SDS011;2833;50.432;10.706;2023-08-01T11:09:49;3.60;;;3.30;;
5622;SDS011;2833;50.432;10.706;2023-08-01T11:12:15;3.17;;;2.87;;
5622;SDS011;2833;50.432;10.706;2023-08-01T11:14:40;2.93;;;2.70;;
5622;SDS011;2833;50.432;10.706;2023-08-01T11:17:05;2.90;;;2.70;;
5622;SDS011;2833;50.432;10.706;2023-08-01T11:19:30;3.20;;;2.90;;
5622;SDS011;2833;50.432;10.706;2023-08-01T11:21:56;3.23;;;2.93;;
5622;SDS011;2833;50.432;10.706;2023-08-01T11:24:22;3.33;;;3.03;;
5622;SDS011;2833;50.432;10.706;2023-08-01T11:26:48;3.10;;;2.70;;
5622;SDS011;2833;50.432;10.706;2023-08-01T11:29:14;3.07;;;2.80;;
5622;SDS011;2833;50.432;10.706;2023-08-01T11:31:39;3.67;;;3.10;;
5622;SDS011;2833;50.432;10.706;2023-08-01T11:34:06;3.70;;;3.10;;
5622;SDS011;2833;50.432;10.706;2023-08-01T11:36:33;3.23;;;3.00;;
5622;SDS011;2833;50.432;10.706;2023-08-01T11:38:59;4.03;;;3.63;;
5622;SDS011;2833;50.432;10.706;2023-08-01T11:41:26;3.30;;;3.00;;
5622;SDS011;2833;50.432;10.706;2023-08-01T11:43:52;3.90;;;3.13;;
5622;SDS011;2833;50.432;10.706;2023-08-01T11:46:19;3.17;;;2.93;;
5622;SDS011;2833;50.432;10.706;2023-08-01T11:48:45;3.27;;;2.97;;
5622;SDS011;2833;50.432;10.706;2023-08-01T11:51:15;3.70;;;3.40;;
5622;SDS011;2833;50.432;10.706;2023-08-01T11:53:40;4.00;;;3.07;;
5622;SDS011;2833;50.432;10.706;2023-08-01T11:56:05;3.97;;;3.40;;
5622;SDS011;2833;50.432;10.706;2023-08-01T12:01:09;3.43;;;3.13;;
5622;SDS011;2833;50.432;10.706;2023-08-01T12:06:15;3.87;;;3.17;;
5622;SDS011;2833;50.432;10.706;2023-08-01T12:08:44;3.90;;;3.20;;
5622;SDS011;2833;50.432;10.706;2023-08-01T12:11:19;3.37;;;2.87;;
5622;SDS011;2833;50.432;10.706;2023-08-01T12:13:47;2.60;;;2.40;;
5622;SDS011;2833;50.432;10.706;2023-08-01T12:16:13;3.37;;;3.00;;
5622;SDS011;2833;50.432;10.706;2023-08-01T12:18:40;5.20;;;3.00;;
5622;SDS011;2833;50.432;10.706;2023-08-01T12:21:07;2.90;;;2.60;;
5622;SDS011;2833;50.432;10.706;2023-08-01T12:23:33;3.13;;;2.67;;
5622;SDS011;2833;50.432;10.706;2023-08-01T12:25:58;3.40;;;2.73;;
5622;SDS011;2833;50.432;10.706;2023-08-01T12:28:23;3.03;;;2.83;;
5622;SDS011;2833;50.432;10.706;2023-08-01T12:30:48;4.13;;;2.47;;
5622;SDS011;2833;50.432;10.706;2023-08-01T12:33:16;2.80;;;2.40;;
5622;SDS011;2833;50.432;10.706;2023-08-01T12:35:41;3.17;;;2.47;;
5622;SDS011;2833;50.432;10.706;2023-08-01T12:38:10;6.23;;;2.27;;
5622;SDS011;2833;50.432;10.706;2023-08-01T12:40:35;2.70;;;2.50;;
5622;SDS011;2833;50.432;10.706;2023-08-01T12:43:00;2.30;;;2.10;;
5622;SDS011;2833;50.432;10.706;2023-08-01T12:45:25;5.70;;;2.37;;
5622;SDS011;2833;50.432;10.706;2023-08-01T12:47:51;3.30;;;2.37;;
5622;SDS011;2833;50.432;10.706;2023-08-01T12:50:16;2.20;;;2.00;;
5622;SDS011;2833;50.432;10.706;2023-08-01T12:52:41;1.83;;;1.73;;
5622;SDS011;2833;50.432;10.706;2023-08-01T12:55:06;2.10;;;1.80;;
5622;SDS011;2833;50.432;10.706;2023-08-01T12:57:32;1.83;;;1.70;;
5622;SDS011;2833;50.432;10.706;2023-08-01T12:59:57;1.87;;;1.77;;
5622;SDS011;2833;50.432;10.706;2023-08-01T13:02:22;1.77;;;1.67;;
5622;SDS011;2833;50.432;10.706;2023-08-01T13:04:48;2.40;;;1.80;;
5622;SDS011;2833;50.432;10.706;2023-08-01T13:07:13;1.53;;;1.40;;
5622;SDS011;2833;50.432;10.706;2023-08-01T13:09:38;3.03;;;1.93;;
5622;SDS011;2833;50.432;10.706;2023-08-01T13:12:04;2.10;;;2.00;;
5622;SDS011;2833;50.432;10.706;2023-08-01T13:14:29;2.07;;;1.90;;
5622;SDS011;2833;50.432;10.706;2023-08-01T13:16:54;2.00;;;1.90;;
5622;SDS011;2833;50.432;10.706;2023-08-01T13:19:19;2.07;;;1.93;;
5622;SDS011;2833;50.432;10.706;2023-08-01T13:21:45;2.13;;;1.93;;
5622;SDS011;2833;50.432;10.706;2023-08-01T13:24:10;2.70;;;2.00;;
5622;SDS011;2833;50.432;10.706;2023-08-01T13:26:35;12.30;;;2.57;;
5622;SDS011;2833;50.432;10.706;2023-08-01T13:29:01;3.63;;;1.93;;
5622;SDS011;2833;50.432;10.706;2023-08-01T13:31:26;1.90;;;1.80;;
5622;SDS011;2833;50.432;10.706;2023-08-01T13:33:52;3.23;;;1.80;;
5622;SDS011;2833;50.432;10.706;2023-08-01T13:36:18;1.93;;;1.83;;
5622;SDS011;2833;50.432;10.706;2023-08-01T13:38:43;1.73;;;1.60;;
5622;SDS011;2833;50.432;10.706;2023-08-01T13:41:09;3.33;;;1.80;;
5622;SDS011;2833;50.432;10.706;2023-08-01T13:43:34;3.27;;;2.43;;
5622;SDS011;2833;50.432;10.706;2023-08-01T13:45:59;1.80;;;1.70;;
5622;SDS011;2833;50.432;10.706;2023-08-01T13:48:24;2.13;;;1.97;;
5622;SDS011;2833;50.432;10.706;2023-08-01T13:50:50;1.97;;;1.77;;
5622;SDS011;2833;50.432;10.706;2023-08-01T13:53:15;2.13;;;1.93;;
5622;SDS011;2833;50.432;10.706;2023-08-01T13:55:41;2.00;;;1.90;;
5622;SDS011;2833;50.432;10.706;2023-08-01T13:58:06;1.80;;;1.70;;
5622;SDS011;2833;50.432;10.706;2023-08-01T14:00:31;6.93;;;1.90;;
5622;SDS011;2833;50.432;10.706;2023-08-01T14:02:57;4.63;;;1.90;;
5622;SDS011;2833;50.432;10.706;2023-08-01T14:05:25;2.63;;;2.37;;
5622;SDS011;2833;50.432;10.706;2023-08-01T14:07:51;3.30;;;1.90;;
5622;SDS011;2833;50.432;10.706;2023-08-01T14:10:16;2.07;;;1.60;;
5622;SDS011;2833;50.432;10.706;2023-08-01T14:12:42;2.40;;;1.93;;
5622;SDS011;2833;50.432;10.706;2023-08-01T14:15:07;2.73;;;1.90;;
5622;SDS011;2833;50.432;10.706;2023-08-01T14:17:33;2.30;;;2.10;;
5622;SDS011;2833;50.432;10.706;2023-08-01T14:19:58;2.87;;;2.30;;
5622;SDS011;2833;50.432;10.706;2023-08-01T14:22:24;3.33;;;1.87;;
5622;SDS011;2833;50.432;10.706;2023-08-01T14:24:49;3.27;;;1.80;;
5622;SDS011;2833;50.432;10.706;2023-08-01T14:27:14;2.03;;;1.73;;
5622;SDS011;2833;50.432;10.706;2023-08-01T14:29:39;3.00;;;1.60;;
5622;SDS011;2833;50.432;10.706;2023-08-01T14:32:05;6.27;;;2.00;;
5622;SDS011;2833;50.432;10.706;2023-08-01T14:34:31;4.80;;;1.80;;
5622;SDS011;2833;50.432;10.706;2023-08-01T14:36:56;2.00;;;1.90;;
5622;SDS011;2833;50.432;10.706;2023-08-01T14:39:21;2.40;;;1.80;;
5622;SDS011;2833;50.432;10.706;2023-08-01T14:41:46;2.40;;;2.00;;
5622;SDS011;2833;50.432;10.706;2023-08-01T14:44:12;2.50;;;1.90;;
5622;SDS011;2833;50.432;10.706;2023-08-01T14:46:37;2.03;;;1.90;;
5622;SDS011;2833;50.432;10.706;2023-08-01T14:49:02;1.80;;;1.70;;
5622;SDS011;2833;50.432;10.706;2023-08-01T14:51:27;1.93;;;1.83;;
5622;SDS011;2833;50.432;10.706;2023-08-01T14:53:53;2.13;;;1.20;;
5622;SDS011;2833;50.432;10.706;2023-08-01T14:56:18;1.40;;;1.30;;